sensor_id;sensor_type;location;lat;lon;timestamp;temperature;humidity
49124;DHT22;48506;48.202;16.274;2023-03-23T00:01:57;11.30;83.40
49124;DHT22;48506;48.202;16.274;2023-03-23T00:04:23;11.30;83.60
49124;DHT22;48506;48.202;16.274;2023-03-23T00:06:51;11.30;83.30
49124;DHT22;48506;48.202;16.274;2023-03-23T00:09:17;11.30;83.40
49124;DHT22;48506;48.202;16.274;2023-03-23T00:11:50;11.30;83.30
49124;DHT22;48506;48.202;16.274;2023-03-23T00:14:16;11.20;83.20
49124;DHT22;48506;48.202;16.274;2023-03-23T00:16:42;11.10;83.30
49124;DHT22;48506;48.202;16.274;2023-03-23T00:19:12;11.10;83.30
49124;DHT22;48506;48.202;16.274;2023-03-23T00:21:40;11.00;83.40
49124;DHT22;48506;48.202;16.274;2023-03-23T00:24:14;10.90;83.70
49124;DHT22;48506;48.202;16.274;2023-03-23T00:26:43;10.80;83.90
49124;DHT22;48506;48.202;16.274;2023-03-23T00:29:18;10.70;84.10
49124;DHT22;48506;48.202;16.274;2023-03-23T00:31:45;10.60;85.00
49124;DHT22;48506;48.202;16.274;2023-03-23T00:34:16;10.60;84.80
49124;DHT22;48506;48.202;16.274;2023-03-23T00:36:45;10.50;84.80
49124;DHT22;48506;48.202;16.274;2023-03-23T00:39:11;10.50;85.20
49124;DHT22;48506;48.202;16.274;2023-03-23T00:41:37;10.40;85.30
49124;DHT22;48506;48.202;16.274;2023-03-23T00:44:04;10.40;85.50
49124;DHT22;48506;48.202;16.274;2023-03-23T00:46:30;10.30;86.20
49124;DHT22;48506;48.202;16.274;2023-03-23T00:48:56;10.40;86.60
49124;DHT22;48506;48.202;16.274;2023-03-23T00:51:23;10.50;86.60
49124;DHT22;48506;48.202;16.274;2023-03-23T00:53:50;10.60;86.30
49124;DHT22;48506;48.202;16.274;2023-03-23T00:56:16;10.60;86.00
49124;DHT22;48506;48.202;16.274;2023-03-23T00:58:43;10.60;85.90
49124;DHT22;48506;48.202;16.274;2023-03-23T01:01:09;10.60;85.80
49124;DHT22;48506;48.202;16.274;2023-03-23T01:03:36;10.60;85.80
49124;DHT22;48506;48.202;16.274;2023-03-23T01:06:09;10.60;85.60
49124;DHT22;48506;48.202;16.274;2023-03-23T01:08:40;10.50;85.90
49124;DHT22;48506;48.202;16.274;2023-03-23T01:11:13;10.40;86.10
49124;DHT22;48506;48.202;16.274;2023-03-23T01:13:43;10.30;86.30
49124;DHT22;48506;48.202;16.274;2023-03-23T01:16:10;10.20;86.50
49124;DHT22;48506;48.202;16.274;2023-03-23T01:18:38;10.10;86.90
49124;DHT22;48506;48.202;16.274;2023-03-23T01:21:07;10.10;87.20
49124;DHT22;48506;48.202;16.274;2023-03-23T01:23:34;10.00;87.50
49124;DHT22;48506;48.202;16.274;2023-03-23T01:26:08;10.00;87.80
49124;DHT22;48506;48.202;16.274;2023-03-23T01:28:35;9.90;88.00
49124;DHT22;48506;48.202;16.274;2023-03-23T01:31:10;9.90;88.10
49124;DHT22;48506;48.202;16.274;2023-03-23T01:33:39;9.90;88.30
49124;DHT22;48506;48.202;16.274;2023-03-23T01:36:13;9.90;88.30
49124;DHT22;48506;48.202;16.274;2023-03-23T01:38:42;9.80;88.50
49124;DHT22;48506;48.202;16.274;2023-03-23T01:41:08;9.80;88.60
49124;DHT22;48506;48.202;16.274;2023-03-23T01:43:33;9.80;88.90
49124;DHT22;48506;48.202;16.274;2023-03-23T01:46:00;9.80;89.10
49124;DHT22;48506;48.202;16.274;2023-03-23T01:48:32;9.80;89.30
49124;DHT22;48506;48.202;16.274;2023-03-23T01:51:06;9.80;89.30
49124;DHT22;48506;48.202;16.274;2023-03-23T01:53:37;9.70;89.40
49124;DHT22;48506;48.202;16.274;2023-03-23T01:56:04;9.70;89.60
49124;DHT22;48506;48.202;16.274;2023-03-23T01:58:34;9.70;89.80
49124;DHT22;48506;48.202;16.274;2023-03-23T02:01:04;9.70;89.80
49124;DHT22;48506;48.202;16.274;2023-03-23T02:03:32;9.70;89.70
49124;DHT22;48506;48.202;16.274;2023-03-23T02:06:00;9.60;89.90
49124;DHT22;48506;48.202;16.274;2023-03-23T02:08:29;9.70;90.10
49124;DHT22;48506;48.202;16.274;2023-03-23T02:10:55;9.70;90.20
49124;DHT22;48506;48.202;16.274;2023-03-23T02:13:21;9.80;90.20
49124;DHT22;48506;48.202;16.274;2023-03-23T02:16:08;9.90;90.20
49124;DHT22;48506;48.202;16.274;2023-03-23T02:35:57;9.50;90.10
49124;DHT22;48506;48.202;16.274;2023-03-23T02:38:45;9.40;90.20
49124;DHT22;48506;48.202;16.274;2023-03-23T02:41:21;9.40;90.20
49124;DHT22;48506;48.202;16.274;2023-03-23T02:43:49;9.40;90.20
49124;DHT22;48506;48.202;16.274;2023-03-23T02:46:16;9.30;90.20
49124;DHT22;48506;48.202;16.274;2023-03-23T02:48:45;9.30;90.40
49124;DHT22;48506;48.202;16.274;2023-03-23T02:51:12;9.20;90.50
49124;DHT22;48506;48.202;16.274;2023-03-23T02:53:41;9.20;90.60
49124;DHT22;48506;48.202;16.274;2023-03-23T02:56:09;9.20;90.70
49124;DHT22;48506;48.202;16.274;2023-03-23T02:58:36;9.20;90.70
49124;DHT22;48506;48.202;16.274;2023-03-23T03:04:15;9.20;90.70
49124;DHT22;48506;48.202;16.274;2023-03-23T03:09:25;9.20;90.70
49124;DHT22;48506;48.202;16.274;2023-03-23T03:12:02;9.10;90.60
49124;DHT22;48506;48.202;16.274;2023-03-23T03:14:39;9.10;90.70
49124;DHT22;48506;48.202;16.274;2023-03-23T03:17:24;9.10;90.70
49124;DHT22;48506;48.202;16.274;2023-03-23T03:19:55;9.10;90.70
49124;DHT22;48506;48.202;16.274;2023-03-23T03:22:23;9.10;90.80
49124;DHT22;48506;48.202;16.274;2023-03-23T03:24:58;9.00;90.80
49124;DHT22;48506;48.202;16.274;2023-03-23T03:27:26;9.00;90.90
49124;DHT22;48506;48.202;16.274;2023-03-23T03:29:55;8.90;91.00
49124;DHT22;48506;48.202;16.274;2023-03-23T03:32:28;8.90;91.00
49124;DHT22;48506;48.202;16.274;2023-03-23T03:35:00;8.90;91.10
49124;DHT22;48506;48.202;16.274;2023-03-23T03:37:26;8.90;91.10
49124;DHT22;48506;48.202;16.274;2023-03-23T03:39:52;8.90;91.10
49124;DHT22;48506;48.202;16.274;2023-03-23T03:42:18;8.80;91.10
49124;DHT22;48506;48.202;16.274;2023-03-23T03:44:44;8.80;91.10
49124;DHT22;48506;48.202;16.274;2023-03-23T03:47:10;8.80;91.20
49124;DHT22;48506;48.202;16.274;2023-03-23T03:49:36;8.80;91.30
49124;DHT22;48506;48.202;16.274;2023-03-23T03:52:02;8.80;91.40
49124;DHT22;48506;48.202;16.274;2023-03-23T03:54:28;8.80;91.40
49124;DHT22;48506;48.202;16.274;2023-03-23T03:56:54;8.80;91.50
49124;DHT22;48506;48.202;16.274;2023-03-23T03:59:23;8.80;91.50
49124;DHT22;48506;48.202;16.274;2023-03-23T04:01:51;8.90;91.40
49124;DHT22;48506;48.202;16.274;2023-03-23T04:04:20;8.90;91.50
49124;DHT22;48506;48.202;16.274;2023-03-23T04:06:48;8.90;91.40
49124;DHT22;48506;48.202;16.274;2023-03-23T04:09:14;8.90;91.50
49124;DHT22;48506;48.202;16.274;2023-03-23T04:11:40;8.80;91.50
49124;DHT22;48506;48.202;16.274;2023-03-23T04:14:06;8.80;91.50
49124;DHT22;48506;48.202;16.274;2023-03-23T04:16:32;8.90;91.50
49124;DHT22;48506;48.202;16.274;2023-03-23T04:19:00;8.80;91.50
49124;DHT22;48506;48.202;16.274;2023-03-23T04:21:27;8.80;91.60
49124;DHT22;48506;48.202;16.274;2023-03-23T04:23:56;8.80;91.50
49124;DHT22;48506;48.202;16.274;2023-03-23T04:26:27;8.80;91.50
49124;DHT22;48506;48.202;16.274;2023-03-23T04:28:56;8.80;91.50
49124;DHT22;48506;48.202;16.274;2023-03-23T04:31:24;8.70;91.60
49124;DHT22;48506;48.202;16.274;2023-03-23T04:33:51;8.70;91.60
49124;DHT22;48506;48.202;16.274;2023-03-23T04:36:18;8.60;91.70
49124;DHT22;48506;48.202;16.274;2023-03-23T04:38:44;8.60;91.80
49124;DHT22;48506;48.202;16.274;2023-03-23T04:41:11;8.60;91.80
49124;DHT22;48506;48.202;16.274;2023-03-23T04:43:37;8.50;91.90
49124;DHT22;48506;48.202;16.274;2023-03-23T04:46:09;8.50;92.00
49124;DHT22;48506;48.202;16.274;2023-03-23T04:48:35;8.40;92.00
49124;DHT22;48506;48.202;16.274;2023-03-23T04:51:04;8.50;92.00
49124;DHT22;48506;48.202;16.274;2023-03-23T04:53:31;8.40;92.10
49124;DHT22;48506;48.202;16.274;2023-03-23T04:56:00;8.40;92.20
49124;DHT22;48506;48.202;16.274;2023-03-23T04:58:29;8.40;92.30
49124;DHT22;48506;48.202;16.274;2023-03-23T05:01:00;8.40;92.20
49124;DHT22;48506;48.202;16.274;2023-03-23T05:03:27;8.40;92.30
49124;DHT22;48506;48.202;16.274;2023-03-23T05:05:53;8.30;92.40
49124;DHT22;48506;48.202;16.274;2023-03-23T05:08:20;8.30;92.50
49124;DHT22;48506;48.202;16.274;2023-03-23T05:10:54;8.30;92.50
49124;DHT22;48506;48.202;16.274;2023-03-23T05:13:21;8.40;92.50
49124;DHT22;48506;48.202;16.274;2023-03-23T05:15:48;8.40;92.50
49124;DHT22;48506;48.202;16.274;2023-03-23T05:18:15;8.40;92.40
49124;DHT22;48506;48.202;16.274;2023-03-23T05:20:42;8.50;92.40
49124;DHT22;48506;48.202;16.274;2023-03-23T05:23:09;8.50;92.50
49124;DHT22;48506;48.202;16.274;2023-03-23T05:25:36;8.60;92.50
49124;DHT22;48506;48.202;16.274;2023-03-23T05:28:10;8.60;92.50
49124;DHT22;48506;48.202;16.274;2023-03-23T05:30:38;8.70;92.60
49124;DHT22;48506;48.202;16.274;2023-03-23T05:33:05;8.70;92.60
49124;DHT22;48506;48.202;16.274;2023-03-23T05:35:32;8.80;92.60
49124;DHT22;48506;48.202;16.274;2023-03-23T05:37:58;8.80;92.60
49124;DHT22;48506;48.202;16.274;2023-03-23T05:40:26;8.90;92.60
49124;DHT22;48506;48.202;16.274;2023-03-23T05:42:54;9.00;92.60
49124;DHT22;48506;48.202;16.274;2023-03-23T05:45:21;9.10;92.60
49124;DHT22;48506;48.202;16.274;2023-03-23T05:47:48;9.20;92.60
49124;DHT22;48506;48.202;16.274;2023-03-23T05:50:14;9.30;92.60
49124;DHT22;48506;48.202;16.274;2023-03-23T05:52:40;9.40;92.50
49124;DHT22;48506;48.202;16.274;2023-03-23T05:55:07;9.50;92.40
49124;DHT22;48506;48.202;16.274;2023-03-23T05:57:34;9.60;92.30
49124;DHT22;48506;48.202;16.274;2023-03-23T06:00:00;9.60;92.10
49124;DHT22;48506;48.202;16.274;2023-03-23T06:02:38;9.70;92.00
49124;DHT22;48506;48.202;16.274;2023-03-23T06:05:04;9.80;92.00
49124;DHT22;48506;48.202;16.274;2023-03-23T06:07:30;10.00;91.90
49124;DHT22;48506;48.202;16.274;2023-03-23T06:09:57;10.00;91.80
49124;DHT22;48506;48.202;16.274;2023-03-23T06:12:24;10.20;91.80
49124;DHT22;48506;48.202;16.274;2023-03-23T06:14:50;10.20;91.70
49124;DHT22;48506;48.202;16.274;2023-03-23T06:17:17;10.40;91.60
49124;DHT22;48506;48.202;16.274;2023-03-23T06:19:44;10.50;91.40
49124;DHT22;48506;48.202;16.274;2023-03-23T06:22:15;10.50;91.20
49124;DHT22;48506;48.202;16.274;2023-03-23T06:24:42;10.70;91.10
49124;DHT22;48506;48.202;16.274;2023-03-23T06:27:08;10.70;91.00
49124;DHT22;48506;48.202;16.274;2023-03-23T06:29:35;10.80;90.90
49124;DHT22;48506;48.202;16.274;2023-03-23T06:32:04;10.90;91.00
49124;DHT22;48506;48.202;16.274;2023-03-23T06:34:31;11.00;91.10
49124;DHT22;48506;48.202;16.274;2023-03-23T06:37:00;11.20;90.70
49124;DHT22;48506;48.202;16.274;2023-03-23T06:39:27;11.30;90.40
49124;DHT22;48506;48.202;16.274;2023-03-23T06:41:54;11.40;90.30
49124;DHT22;48506;48.202;16.274;2023-03-23T06:44:22;11.60;90.20
49124;DHT22;48506;48.202;16.274;2023-03-23T06:46:48;11.80;90.20
49124;DHT22;48506;48.202;16.274;2023-03-23T06:49:14;12.00;89.70
49124;DHT22;48506;48.202;16.274;2023-03-23T06:51:42;12.10;88.70
49124;DHT22;48506;48.202;16.274;2023-03-23T06:54:08;12.10;88.30
49124;DHT22;48506;48.202;16.274;2023-03-23T06:56:34;12.10;88.20
49124;DHT22;48506;48.202;16.274;2023-03-23T06:59:00;12.10;88.30
49124;DHT22;48506;48.202;16.274;2023-03-23T07:01:27;12.20;88.30
49124;DHT22;48506;48.202;16.274;2023-03-23T07:03:55;12.30;87.70
49124;DHT22;48506;48.202;16.274;2023-03-23T07:06:22;12.30;87.40
49124;DHT22;48506;48.202;16.274;2023-03-23T07:08:48;12.40;87.30
49124;DHT22;48506;48.202;16.274;2023-03-23T07:11:14;12.40;87.10
49124;DHT22;48506;48.202;16.274;2023-03-23T07:13:40;12.50;86.70
49124;DHT22;48506;48.202;16.274;2023-03-23T07:16:08;12.50;86.50
49124;DHT22;48506;48.202;16.274;2023-03-23T07:18:36;12.50;86.20
49124;DHT22;48506;48.202;16.274;2023-03-23T07:21:02;12.60;86.30
49124;DHT22;48506;48.202;16.274;2023-03-23T07:23:29;12.60;86.20
49124;DHT22;48506;48.202;16.274;2023-03-23T07:25:56;12.70;86.30
49124;DHT22;48506;48.202;16.274;2023-03-23T07:28:22;12.80;86.20
49124;DHT22;48506;48.202;16.274;2023-03-23T07:30:48;12.90;85.60
49124;DHT22;48506;48.202;16.274;2023-03-23T07:33:14;12.90;85.20
49124;DHT22;48506;48.202;16.274;2023-03-23T07:35:42;13.00;85.30
49124;DHT22;48506;48.202;16.274;2023-03-23T07:38:08;13.10;85.60
49124;DHT22;48506;48.202;16.274;2023-03-23T07:40:35;13.20;85.90
49124;DHT22;48506;48.202;16.274;2023-03-23T07:43:03;13.30;85.00
49124;DHT22;48506;48.202;16.274;2023-03-23T07:45:30;13.50;84.80
49124;DHT22;48506;48.202;16.274;2023-03-23T07:47:56;13.60;84.80
49124;DHT22;48506;48.202;16.274;2023-03-23T07:50:22;13.70;84.30
49124;DHT22;48506;48.202;16.274;2023-03-23T07:52:51;13.90;84.10
49124;DHT22;48506;48.202;16.274;2023-03-23T07:55:18;14.10;83.80
49124;DHT22;48506;48.202;16.274;2023-03-23T07:57:46;14.30;83.50
49124;DHT22;48506;48.202;16.274;2023-03-23T08:00:15;14.50;83.10
49124;DHT22;48506;48.202;16.274;2023-03-23T08:02:53;14.60;82.60
49124;DHT22;48506;48.202;16.274;2023-03-23T08:05:22;14.90;81.50
49124;DHT22;48506;48.202;16.274;2023-03-23T08:07:52;15.00;81.40
49124;DHT22;48506;48.202;16.274;2023-03-23T08:10:22;15.10;81.00
49124;DHT22;48506;48.202;16.274;2023-03-23T08:12:54;15.20;80.30
49124;DHT22;48506;48.202;16.274;2023-03-23T08:15:21;15.30;79.90
49124;DHT22;48506;48.202;16.274;2023-03-23T08:17:50;15.30;79.80
49124;DHT22;48506;48.202;16.274;2023-03-23T08:20:18;15.40;80.10
49124;DHT22;48506;48.202;16.274;2023-03-23T08:22:49;15.40;79.50
49124;DHT22;48506;48.202;16.274;2023-03-23T08:25:17;15.40;79.50
49124;DHT22;48506;48.202;16.274;2023-03-23T08:27:43;15.40;79.20
49124;DHT22;48506;48.202;16.274;2023-03-23T08:30:13;15.40;78.80
49124;DHT22;48506;48.202;16.274;2023-03-23T08:32:40;15.40;78.70
49124;DHT22;48506;48.202;16.274;2023-03-23T08:35:09;15.40;78.80
49124;DHT22;48506;48.202;16.274;2023-03-23T08:37:36;15.40;78.50
49124;DHT22;48506;48.202;16.274;2023-03-23T08:40:04;15.40;78.00
49124;DHT22;48506;48.202;16.274;2023-03-23T08:42:36;15.30;78.10
49124;DHT22;48506;48.202;16.274;2023-03-23T08:45:05;15.50;79.00
49124;DHT22;48506;48.202;16.274;2023-03-23T08:47:31;15.70;78.40
49124;DHT22;48506;48.202;16.274;2023-03-23T08:49:57;16.00;77.60
49124;DHT22;48506;48.202;16.274;2023-03-23T08:52:23;16.30;77.30
49124;DHT22;48506;48.202;16.274;2023-03-23T08:54:49;16.70;76.30
49124;DHT22;48506;48.202;16.274;2023-03-23T08:57:15;17.00;76.30
49124;DHT22;48506;48.202;16.274;2023-03-23T08:59:42;17.40;74.90
49124;DHT22;48506;48.202;16.274;2023-03-23T09:02:11;17.70;73.80
49124;DHT22;48506;48.202;16.274;2023-03-23T09:04:38;18.00;74.10
49124;DHT22;48506;48.202;16.274;2023-03-23T09:07:05;18.30;72.70
49124;DHT22;48506;48.202;16.274;2023-03-23T09:09:33;18.60;72.40
49124;DHT22;48506;48.202;16.274;2023-03-23T09:12:00;18.80;71.80
49124;DHT22;48506;48.202;16.274;2023-03-23T09:14:26;19.20;71.40
49124;DHT22;48506;48.202;16.274;2023-03-23T09:16:53;19.40;69.80
49124;DHT22;48506;48.202;16.274;2023-03-23T09:19:19;19.70;69.70
49124;DHT22;48506;48.202;16.274;2023-03-23T09:21:46;19.90;69.30
49124;DHT22;48506;48.202;16.274;2023-03-23T09:24:12;20.10;67.50
49124;DHT22;48506;48.202;16.274;2023-03-23T09:26:40;20.40;66.40
49124;DHT22;48506;48.202;16.274;2023-03-23T09:29:05;20.50;66.80
49124;DHT22;48506;48.202;16.274;2023-03-23T09:31:31;20.80;65.50
49124;DHT22;48506;48.202;16.274;2023-03-23T09:33:58;20.90;65.50
49124;DHT22;48506;48.202;16.274;2023-03-23T09:36:25;21.00;65.20
49124;DHT22;48506;48.202;16.274;2023-03-23T09:38:52;20.90;64.00
49124;DHT22;48506;48.202;16.274;2023-03-23T09:49:28;21.80;62.90
49124;DHT22;48506;48.202;16.274;2023-03-23T09:52:19;22.00;63.60
49124;DHT22;48506;48.202;16.274;2023-03-23T09:54:49;22.20;63.40
49124;DHT22;48506;48.202;16.274;2023-03-23T09:57:30;22.30;61.00
49124;DHT22;48506;48.202;16.274;2023-03-23T10:08:01;22.80;60.90
49124;DHT22;48506;48.202;16.274;2023-03-23T10:16:06;23.30;59.60
49124;DHT22;48506;48.202;16.274;2023-03-23T10:21:26;23.40;58.30
49124;DHT22;48506;48.202;16.274;2023-03-23T10:23:58;23.40;58.70
49124;DHT22;48506;48.202;16.274;2023-03-23T10:31:50;24.10;56.50
49124;DHT22;48506;48.202;16.274;2023-03-23T10:39:28;24.20;56.40
49124;DHT22;48506;48.202;16.274;2023-03-23T10:41:55;24.40;56.40
49124;DHT22;48506;48.202;16.274;2023-03-23T10:44:23;24.70;56.10
49124;DHT22;48506;48.202;16.274;2023-03-23T10:46:59;24.80;55.00
49124;DHT22;48506;48.202;16.274;2023-03-23T10:49:33;24.80;55.30
49124;DHT22;48506;48.202;16.274;2023-03-23T10:55:19;25.00;55.00
49124;DHT22;48506;48.202;16.274;2023-03-23T10:58:08;25.10;54.30
49124;DHT22;48506;48.202;16.274;2023-03-23T11:00:42;25.20;54.60
49124;DHT22;48506;48.202;16.274;2023-03-23T11:05:51;25.70;53.30
49124;DHT22;48506;48.202;16.274;2023-03-23T11:08:22;25.80;54.10
49124;DHT22;48506;48.202;16.274;2023-03-23T11:11:07;26.00;53.60
49124;DHT22;48506;48.202;16.274;2023-03-23T11:13:42;26.20;53.40
49124;DHT22;48506;48.202;16.274;2023-03-23T11:16:27;26.40;53.00
49124;DHT22;48506;48.202;16.274;2023-03-23T11:18:54;26.60;54.00
49124;DHT22;48506;48.202;16.274;2023-03-23T11:21:23;26.80;52.90
49124;DHT22;48506;48.202;16.274;2023-03-23T11:23:57;27.00;53.10
49124;DHT22;48506;48.202;16.274;2023-03-23T11:31:29;26.70;51.10
49124;DHT22;48506;48.202;16.274;2023-03-23T11:34:09;26.50;50.40
49124;DHT22;48506;48.202;16.274;2023-03-23T11:36:41;26.30;50.60
49124;DHT22;48506;48.202;16.274;2023-03-23T11:39:26;26.20;51.10
49124;DHT22;48506;48.202;16.274;2023-03-23T11:41:54;26.00;50.70
49124;DHT22;48506;48.202;16.274;2023-03-23T11:44:23;26.00;50.80
49124;DHT22;48506;48.202;16.274;2023-03-23T11:50:09;25.60;50.70
49124;DHT22;48506;48.202;16.274;2023-03-23T11:56:19;25.40;51.50
49124;DHT22;48506;48.202;16.274;2023-03-23T11:58:20;25.30;52.80
49124;DHT22;48506;48.202;16.274;2023-03-23T12:01:04;25.20;51.90
49124;DHT22;48506;48.202;16.274;2023-03-23T12:04:02;25.10;52.00
49124;DHT22;48506;48.202;16.274;2023-03-23T12:06:54;25.10;51.90
49124;DHT22;48506;48.202;16.274;2023-03-23T12:12:21;25.10;53.00
49124;DHT22;48506;48.202;16.274;2023-03-23T12:20:32;24.80;52.70
49124;DHT22;48506;48.202;16.274;2023-03-23T12:23:21;24.70;53.40
49124;DHT22;48506;48.202;16.274;2023-03-23T12:35:07;25.60;52.60
49124;DHT22;48506;48.202;16.274;2023-03-23T12:40:55;25.70;52.00
49124;DHT22;48506;48.202;16.274;2023-03-23T12:49:18;25.00;51.60
49124;DHT22;48506;48.202;16.274;2023-03-23T12:54:57;24.90;51.90
49124;DHT22;48506;48.202;16.274;2023-03-23T12:57:43;24.90;51.60
49124;DHT22;48506;48.202;16.274;2023-03-23T13:00:30;24.80;51.00
